Time;durP1;ratioP1;P1;durP2;ratioP2;P2;SDS_P1;SDS_P2;PMS_P1;PMS_P2;Temp;Humidity;BMP_temperature;BMP_pressure;BME280_temperature;BME280_humidity;BME280_pressure;Samples;Min_cycle;Max_cycle;Signal;HPM_P1;HPM_P2
2022/10/28 00:00:24;;;;;;;10.65;3.42;;;;;;;7.94;100.00;93876.56;2114999;27;20023;-70
2022/10/28 00:01:25;;;;;;;7.82;3.30;;;;;;;7.88;100.00;93867.44;2118561;27;20023;-69
2022/10/28 00:02:26;;;;;;;8.15;3.72;;;;;;;7.94;100.00;93871.25;2127438;27;20802;-70
2022/10/28 00:03:27;;;;;;;12.13;3.42;;;;;;;7.92;100.00;93871.63;2127242;27;20160;-69
2022/10/28 00:04:28;;;;;;;11.00;3.58;;;;;;;8.02;100.00;93876.19;2127234;27;20080;-69
2022/10/28 00:05:32;;;;;;;6.28;2.85;;;;;;;8.04;100.00;93873.91;2127012;27;20066;-71
2022/10/28 00:06:35;;;;;;;9.45;3.30;;;;;;;8.01;100.00;93874.69;2127569;27;20039;-69
2022/10/28 00:07:36;;;;;;;11.60;3.92;;;;;;;7.96;100.00;93872.41;2127522;27;20039;-69
2022/10/28 00:08:37;;;;;;;10.65;3.67;;;;;;;7.97;100.00;93868.59;2127485;27;20457;-69
2022/10/28 00:09:38;;;;;;;10.13;3.58;;;;;;;8.08;100.00;93871.25;2127145;27;20031;-69
2022/10/28 00:10:40;;;;;;;11.60;3.45;;;;;;;8.07;100.00;93875.03;2131461;27;20437;-69
2022/10/28 00:11:41;;;;;;;8.82;3.22;;;;;;;8.09;100.00;93870.13;2127446;27;20051;-71
2022/10/28 00:12:41;;;;;;;7.90;3.15;;;;;;;8.12;100.00;93871.25;2127528;27;20034;-69
2022/10/28 00:13:44;;;;;;;7.30;2.78;;;;;;;8.05;100.00;93875.44;2124089;27;20084;-69
2022/10/28 00:14:45;;;;;;;7.68;3.03;;;;;;;8.14;100.00;93871.63;2118014;27;20051;-69
2022/10/28 00:15:46;;;;;;;7.57;2.97;;;;;;;8.29;100.00;93871.22;2117878;27;20028;-69
2022/10/28 00:16:47;;;;;;;9.95;3.58;;;;;;;8.24;100.00;93870.88;2127068;27;20101;-69
2022/10/28 00:17:48;;;;;;;10.45;3.05;;;;;;;8.21;100.00;93866.28;2126959;27;20027;-69
2022/10/28 00:18:52;;;;;;;12.18;3.30;;;;;;;8.23;100.00;93875.44;2127354;27;20019;-71
2022/10/28 00:19:53;;;;;;;6.40;2.72;;;;;;;8.16;100.00;93878.09;2127417;27;20703;-69
2022/10/28 00:21:03;;;;;;;10.27;3.22;;;;;;;8.13;100.00;93872.78;2130902;27;20046;-71
2022/10/28 00:22:04;;;;;;;7.47;3.17;;;;;;;8.33;100.00;93879.97;2127137;27;20398;-69
2022/10/28 00:23:05;;;;;;;8.43;3.40;;;;;;;8.40;100.00;93881.16;2117718;27;20030;-70
2022/10/28 00:24:07;;;;;;;11.00;3.08;;;;;;;8.33;100.00;93872.00;2120344;27;20030;-70
2022/10/28 00:25:08;;;;;;;11.18;3.08;;;;;;;8.20;100.00;93876.19;2127173;27;20026;-69
2022/10/28 00:26:17;;;;;;;10.95;2.97;;;;;;;8.23;100.00;93874.69;2126880;27;20027;-71
2022/10/28 00:27:18;;;;;;;10.52;3.15;;;;;;;8.15;100.00;93878.47;2127203;27;20091;-69
2022/10/28 00:28:19;;;;;;;17.10;3.33;;;;;;;8.21;100.00;93869.75;2127194;27;20022;-70
2022/10/28 00:29:20;;;;;;;14.25;3.30;;;;;;;8.39;100.00;93869.00;2127236;27;20476;-69
2022/10/28 00:30:21;;;;;;;13.00;3.17;;;;;;;8.29;100.00;93868.56;2127127;27;20023;-70
2022/10/28 00:31:23;;;;;;;4.85;2.67;;;;;;;8.21;100.00;93866.28;2126853;27;20042;-70
2022/10/28 00:32:27;;;;;;;9.32;3.38;;;;;;;8.15;100.00;93865.91;2127369;27;20034;-70
2022/10/28 00:33:27;;;;;;;13.85;3.30;;;;;;;8.21;100.00;93872.41;2126941;27;20023;-69
2022/10/28 00:34:28;;;;;;;14.25;3.08;;;;;;;8.25;100.00;93867.84;2126168;27;20039;-69
2022/10/28 00:35:29;;;;;;;10.85;3.00;;;;;;;8.37;100.00;93863.28;2126884;27;20504;-70
2022/10/28 00:36:34;;;;;;;7.25;3.47;;;;;;;8.30;100.00;93870.13;2127111;27;20628;-69
2022/10/28 00:37:35;;;;;;;7.72;2.95;;;;;;;8.20;100.00;93864.78;2127511;27;20042;-69
2022/10/28 00:38:36;;;;;;;5.05;2.78;;;;;;;8.25;100.00;93867.06;2127137;27;20368;-70
2022/10/28 00:39:37;;;;;;;9.93;3.00;;;;;;;8.27;100.00;93872.78;2126412;27;20026;-69
2022/10/28 00:40:38;;;;;;;14.07;4.10;;;;;;;8.31;100.00;93868.19;2127129;27;20043;-69
2022/10/28 00:41:43;;;;;;;8.40;3.25;;;;;;;8.19;100.00;93868.59;2129881;27;20045;-71
2022/10/28 00:42:45;;;;;;;13.98;3.33;;;;;;;8.08;100.00;93868.59;2126869;27;20026;-71
2022/10/28 00:43:48;;;;;;;12.38;3.30;;;;;;;7.89;100.00;93866.31;2126682;27;20027;-70
2022/10/28 00:45:00;;;;;;;10.57;3.55;;;;;;;7.94;100.00;93868.56;2126888;27;20034;-70
2022/10/28 00:46:04;;;;;;;10.75;3.13;;;;;;;7.89;100.00;93872.38;2126995;27;20019;-71
2022/10/28 00:47:13;;;;;;;9.10;2.90;;;;;;;7.86;100.00;93867.06;2127224;27;20037;-70
2022/10/28 00:48:14;;;;;;;10.90;3.00;;;;;;;7.83;100.00;93872.00;2127161;27;20523;-69
2022/10/28 00:49:18;;;;;;;13.68;2.95;;;;;;;7.80;100.00;93869.34;2127116;27;20035;-70
2022/10/28 00:50:38;;;;;;;14.27;3.13;;;;;;;7.75;100.00;93864.38;2127062;27;20031;-70
2022/10/28 00:51:39;;;;;;;9.60;3.45;;;;;;;7.75;100.00;93872.38;2127021;27;20462;-70
2022/10/28 00:52:42;;;;;;;11.52;2.78;;;;;;;7.76;100.00;93861.34;2129135;27;20087;-70
2022/10/28 00:53:47;;;;;;;9.35;2.80;;;;;;;7.76;100.00;93868.56;2127837;27;20019;-69
2022/10/28 00:54:50;;;;;;;9.10;2.97;;;;;;;7.74;100.00;93866.28;2126881;27;20027;-70
2022/10/28 00:55:51;;;;;;;13.55;2.88;;;;;;;7.72;100.00;93868.56;2122760;27;20027;-69
2022/10/28 00:56:56;;;;;;;9.65;2.80;;;;;;;7.69;100.00;93864.00;2127053;27;20072;-70
2022/10/28 00:57:59;;;;;;;10.20;2.90;;;;;;;7.68;100.00;93872.34;2127938;27;20187;-69
2022/10/28 00:59:05;;;;;;;8.90;3.08;;;;;;;7.72;100.00;93857.16;2127192;27;20033;-70
2022/10/28 01:00:07;;;;;;;12.60;2.92;;;;;;;7.67;100.00;93862.84;2126843;27;20031;-70
2022/10/28 01:01:08;;;;;;;7.82;3.05;;;;;;;7.70;100.00;93859.44;2126905;27;20023;-70
2022/10/28 01:02:09;;;;;;;11.45;2.63;;;;;;;7.74;100.00;93860.22;2117739;27;20027;-72
2022/10/28 01:03:10;;;;;;;12.95;3.00;;;;;;;7.74;100.00;93870.88;2117231;27;20085;-69
2022/10/28 01:04:12;;;;;;;10.15;3.03;;;;;;;7.74;100.00;93860.22;2127142;27;20042;-71
2022/10/28 01:05:18;;;;;;;13.77;2.92;;;;;;;7.69;100.00;93861.34;2126019;27;20753;-70
2022/10/28 01:06:19;;;;;;;9.57;2.60;;;;;;;7.72;100.00;93855.25;2117569;27;20038;-71
2022/10/28 01:07:21;;;;;;;6.82;2.58;;;;;;;7.68;100.00;93859.06;2117786;27;20036;-70
2022/10/28 01:08:21;;;;;;;7.85;2.78;;;;;;;7.69;100.00;93858.69;2126504;27;20031;-69
2022/10/28 01:09:23;;;;;;;12.85;2.95;;;;;;;7.71;100.00;93860.97;2126913;27;20039;-70
2022/10/28 01:10:42;;;;;;;13.65;2.50;;;;;;;7.71;100.00;93852.97;2126951;27;20031;-70
2022/10/28 01:12:04;;;;;;;5.95;2.97;;;;;;;7.61;100.00;93856.41;2126942;27;20441;-69
2022/10/28 01:13:17;;;;;;;7.95;3.05;;;;;;;7.56;100.00;93858.28;2126556;27;20468;-70
2022/10/28 01:14:20;;;;;;;7.45;2.97;;;;;;;7.50;100.00;93859.78;2126772;27;20023;-68
2022/10/28 01:15:32;;;;;;;6.30;2.45;;;;;;;7.47;100.00;93868.53;2126944;27;20435;-70
2022/10/28 01:16:44;;;;;;;14.10;2.78;;;;;;;7.47;100.00;93863.22;2126432;27;20046;-70
2022/10/28 01:18:02;;;;;;;11.10;2.63;;;;;;;7.46;100.00;93863.56;2126967;27;20084;-70
2022/10/28 01:19:23;;;;;;;8.23;2.75;;;;;;;7.45;100.00;93857.50;2128401;27;20456;-70
2022/10/28 01:20:49;;;;;;;12.98;3.15;;;;;;;7.45;100.00;93857.50;2126987;27;20026;-71
2022/10/28 01:22:11;;;;;;;4.00;2.30;;;;;;;7.41;100.00;93848.75;2126800;27;20039;-69
2022/10/28 01:23:38;;;;;;;9.82;2.60;;;;;;;7.39;100.00;93845.72;2126562;27;20029;-70
2022/10/28 01:25:13;;;;;;;9.38;2.92;;;;;;;7.40;100.00;93849.13;2093331;28;20557;-70
2022/10/28 01:26:23;;;;;;;9.13;3.03;;;;;;;7.33;100.00;93849.88;2126700;27;20507;-69
2022/10/28 01:27:51;;;;;;;9.05;2.80;;;;;;;7.28;100.00;93844.91;2129166;27;20027;-69
2022/10/28 01:29:29;;;;;;;11.80;2.33;;;;;;;7.29;100.00;93844.56;2126364;27;20034;-70
2022/10/28 01:30:53;;;;;;;10.27;2.78;;;;;;;7.35;100.00;93846.84;2126724;27;20545;-69
2022/10/28 01:32:04;;;;;;;12.10;3.35;;;;;;;7.31;100.00;93852.16;2126708;27;20368;-71
2022/10/28 01:33:14;;;;;;;9.75;2.90;;;;;;;7.28;100.00;93842.25;2126180;27;20054;-71
2022/10/28 01:34:24;;;;;;;7.18;2.67;;;;;;;7.27;100.00;93846.06;2126650;27;20031;-69
2022/10/28 01:35:48;;;;;;;9.13;2.88;;;;;;;7.23;100.00;93846.03;2125950;27;20069;-70
2022/10/28 01:36:58;;;;;;;8.98;2.78;;;;;;;7.21;100.00;93845.69;2126674;27;20031;-70
2022/10/28 01:38:30;;;;;;;14.95;2.47;;;;;;;7.14;100.00;93848.31;2126527;27;20027;-69
2022/10/28 01:40:04;;;;;;;7.32;2.38;;;;;;;7.17;100.00;93842.25;2126291;27;20872;-69
2022/10/28 01:41:19;;;;;;;7.97;2.60;;;;;;;7.21;100.00;93848.34;2126642;27;20745;-71
2022/10/28 01:42:36;;;;;;;10.70;2.40;;;;;;;7.23;100.00;93845.28;2126578;27;20456;-68
2022/10/28 01:43:59;;;;;;;6.72;2.78;;;;;;;7.21;100.00;93847.56;2126282;27;20115;-71
2022/10/28 01:45:21;;;;;;;5.78;2.83;;;;;;;7.26;100.00;93852.53;2126707;27;20022;-70
2022/10/28 01:46:44;;;;;;;6.28;2.28;;;;;;;7.28;100.00;93845.69;2126651;27;20028;-69
2022/10/28 01:47:55;;;;;;;14.98;3.10;;;;;;;7.31;100.00;93847.59;2129931;27;20035;-69
2022/10/28 01:49:02;;;;;;;10.65;2.80;;;;;;;7.30;100.00;93845.31;2126572;27;20035;-70
2022/10/28 01:50:17;;;;;;;3.40;2.67;;;;;;;7.31;100.00;93849.50;2126759;27;20026;-69
2022/10/28 01:51:29;;;;;;;5.40;2.80;;;;;;;7.39;100.00;93848.38;2121576;27;20106;-70
2022/10/28 01:52:31;;;;;;;9.57;2.90;;;;;;;7.34;100.00;93846.09;2120421;27;20059;-69
2022/10/28 01:53:38;;;;;;;10.30;3.45;;;;;;;7.30;100.00;93842.66;2126201;27;20389;-70
2022/10/28 01:54:44;;;;;;;8.85;2.85;;;;;;;7.27;100.00;93846.81;2126743;27;20035;-69
2022/10/28 01:55:48;;;;;;;6.20;3.15;;;;;;;7.27;100.00;93846.06;2123090;27;20475;-71
2022/10/28 01:56:52;;;;;;;7.47;2.65;;;;;;;7.28;100.00;93847.56;2126561;27;20019;-70
2022/10/28 01:57:57;;;;;;;8.25;3.30;;;;;;;7.29;100.00;93844.56;2126366;27;20023;-69
2022/10/28 01:59:00;;;;;;;5.35;2.70;;;;;;;7.29;100.00;93844.56;2126430;27;20109;-70
2022/10/28 02:00:01;;;;;;;12.35;3.17;;;;;;;7.35;100.00;93841.53;2126458;27;20022;-69
2022/10/28 02:01:06;;;;;;;10.57;2.83;;;;;;;7.45;100.00;93846.09;2126105;27;20030;-69
2022/10/28 02:02:06;;;;;;;9.30;2.97;;;;;;;7.44;100.00;93840.03;2126462;27;20023;-70
2022/10/28 02:03:08;;;;;;;10.18;2.88;;;;;;;7.62;100.00;93832.06;2126165;27;20101;-70
2022/10/28 02:04:09;;;;;;;8.00;3.00;;;;;;;7.49;100.00;93838.88;2126315;27;20101;-69
2022/10/28 02:05:32;;;;;;;7.50;3.05;;;;;;;7.44;100.00;93841.94;2126667;27;20022;-69
2022/10/28 02:06:33;;;;;;;5.63;2.60;;;;;;;7.53;100.00;93834.34;2124762;27;20031;-69
2022/10/28 02:07:36;;;;;;;12.88;3.25;;;;;;;7.47;100.00;93836.63;2126532;27;20461;-69
2022/10/28 02:08:55;;;;;;;9.85;2.95;;;;;;;7.46;100.00;93837.75;2126338;27;20123;-68
2022/10/28 02:10:11;;;;;;;8.63;3.22;;;;;;;7.45;100.00;93835.47;2126324;27;20034;-69
2022/10/28 02:11:20;;;;;;;11.20;3.00;;;;;;;7.61;100.00;93827.88;2128994;27;20033;-70
2022/10/28 02:12:27;;;;;;;7.82;2.88;;;;;;;7.73;100.00;93837.41;2126590;27;20026;-70
2022/10/28 02:13:43;;;;;;;15.10;3.95;;;;;;;7.78;100.00;93840.44;2126092;27;20027;-69
2022/10/28 02:16:26;;;;;;;;;;;;;;;7.71;100.00;93840.44;2143166;27;21075;-68
2022/10/28 02:17:27;;;;;;;10.50;3.40;;;;;;;7.72;100.00;93833.22;2130366;27;20398;-71
2022/10/28 02:18:39;;;;;;;14.95;3.50;;;;;;;7.62;100.00;93840.03;2133836;27;20033;-71
2022/10/28 02:19:49;;;;;;;7.50;3.25;;;;;;;7.59;100.00;93835.47;2133558;27;20042;-71
2022/10/28 02:20:52;;;;;;;11.73;3.38;;;;;;;7.49;100.00;93834.31;2133815;27;20516;-70
2022/10/28 02:22:21;;;;;;;6.53;3.03;;;;;;;7.48;100.00;93834.72;2126468;27;20110;-71
2022/10/28 02:23:41;;;;;;;6.90;3.20;;;;;;;7.54;100.00;93836.59;2129290;27;20121;-69
2022/10/28 02:25:01;;;;;;;;;;;;;;;7.57;100.00;93829.78;2134120;27;20078;-69
2022/10/28 02:26:16;;;;;;;7.32;3.03;;;;;;;7.57;100.00;93837.75;2131323;27;20005;-68
2022/10/28 02:27:27;;;;;;;6.28;2.60;;;;;;;7.53;100.00;93831.69;2137053;27;20044;-69
2022/10/28 02:28:40;;;;;;;11.18;3.05;;;;;;;7.75;100.00;93835.88;2130612;27;20214;-72
2022/10/28 02:30:00;;;;;;;7.20;3.17;;;;;;;7.76;100.00;93833.97;2124406;27;20372;-72
2022/10/28 02:31:30;;;;;;;10.30;3.65;;;;;;;7.75;100.00;93827.91;2127564;27;20452;-71
2022/10/28 02:32:37;;;;;;;7.07;2.70;;;;;;;7.82;100.00;93843.13;2127920;27;20171;-69
2022/10/28 02:33:42;;;;;;;10.10;3.10;;;;;;;7.79;100.00;93836.63;2133287;27;20359;-72
2022/10/28 02:34:47;;;;;;;6.55;2.35;;;;;;;7.91;100.00;93832.84;2133399;27;20148;-72
2022/10/28 02:36:18;;;;;;;17.17;3.17;;;;;;;7.90;100.00;93827.88;2133606;27;20031;-72
2022/10/28 02:37:25;;;;;;;11.52;2.72;;;;;;;7.82;100.00;93827.91;2115884;27;20045;-71
2022/10/28 02:38:32;;;;;;;10.00;3.55;;;;;;;7.94;100.00;93834.72;2130291;27;20034;-71
2022/10/28 02:39:37;;;;;;;9.55;2.83;;;;;;;8.16;100.00;93835.47;2133606;27;20763;-73
2022/10/28 02:40:40;;;;;;;11.30;3.42;;;;;;;8.05;100.00;93838.16;2133600;27;20054;-69
2022/10/28 02:41:54;;;;;;;10.43;3.15;;;;;;;7.97;100.00;93827.91;2133679;27;20027;-69
2022/10/28 02:43:07;;;;;;;8.05;3.28;;;;;;;7.93;100.00;93830.56;2130004;27;20034;-73
2022/10/28 02:44:13;;;;;;;11.25;3.20;;;;;;;7.97;100.00;93833.97;2133746;27;20364;-71
2022/10/28 02:45:18;;;;;;;8.10;3.03;;;;;;;8.01;100.00;93837.41;2133421;27;20106;-69
2022/10/28 02:46:21;;;;;;;6.78;2.83;;;;;;;8.03;100.00;93826.38;2133659;27;20029;-70
2022/10/28 02:47:27;;;;;;;13.40;2.67;;;;;;;7.99;100.00;93842.38;2129026;27;20030;-73
2022/10/28 02:48:43;;;;;;;5.43;2.70;;;;;;;7.91;100.00;93829.44;2133574;27;20414;-69
2022/10/28 02:49:49;;;;;;;7.95;2.90;;;;;;;7.91;100.00;93832.09;2133539;27;20109;-71
2022/10/28 02:50:59;;;;;;;5.95;2.78;;;;;;;7.83;100.00;93834.00;2133213;27;20137;-68
2022/10/28 02:52:04;;;;;;;19.63;3.28;;;;;;;7.83;100.00;93832.09;2127691;27;20061;-69
2022/10/28 02:53:19;;;;;;;9.18;2.80;;;;;;;7.90;100.00;93838.53;2134453;27;20022;-71
2022/10/28 02:54:36;;;;;;;9.00;2.50;;;;;;;7.94;100.00;93832.06;2133472;27;20031;-69
2022/10/28 02:55:41;;;;;;;7.28;3.08;;;;;;;8.00;100.00;93827.91;2131371;27;20075;-71
2022/10/28 02:56:56;;;;;;;11.00;2.97;;;;;;;7.97;100.00;93830.56;2133512;27;20031;-71
2022/10/28 02:58:04;;;;;;;5.55;2.70;;;;;;;8.09;100.00;93827.50;2127509;27;20030;-69
2022/10/28 02:59:12;;;;;;;7.65;2.65;;;;;;;8.05;100.00;93821.44;2133436;27;20026;-69
2022/10/28 03:00:18;;;;;;;4.43;2.97;;;;;;;8.20;100.00;93822.16;2133137;27;20726;-70
2022/10/28 03:01:19;;;;;;;11.02;2.42;;;;;;;8.08;100.00;93824.09;2132663;27;20063;-69
2022/10/28 03:02:20;;;;;;;11.30;2.92;;;;;;;8.03;100.00;93821.81;2133513;27;20067;-69
2022/10/28 03:03:21;;;;;;;9.30;2.78;;;;;;;8.02;100.00;93817.63;2120394;27;20047;-69
2022/10/28 03:04:22;;;;;;;13.90;3.05;;;;;;;7.99;100.00;93821.06;2133420;27;20075;-69
2022/10/28 03:05:23;;;;;;;5.72;2.60;;;;;;;8.10;100.00;93822.94;2133457;27;20030;-70
2022/10/28 03:06:24;;;;;;;8.65;2.92;;;;;;;8.00;100.00;93819.16;2132884;27;20033;-69
2022/10/28 03:07:25;;;;;;;6.68;2.60;;;;;;;8.04;100.00;93810.03;2133468;27;20025;-71
2022/10/28 03:08:26;;;;;;;6.95;2.80;;;;;;;8.00;100.00;93817.25;2133541;27;20046;-70
2022/10/28 03:09:27;;;;;;;11.57;3.13;;;;;;;7.95;100.00;93816.88;2136735;27;20407;-69
2022/10/28 03:10:28;;;;;;;10.77;2.92;;;;;;;7.97;100.00;93826.00;2130196;27;20027;-69
2022/10/28 03:11:29;;;;;;;8.57;2.85;;;;;;;7.97;100.00;93818.00;2133251;27;20199;-69
2022/10/28 03:12:30;;;;;;;8.73;3.25;;;;;;;7.99;100.00;93817.63;2133279;27;20041;-71
2022/10/28 03:13:31;;;;;;;11.40;2.85;;;;;;;8.00;100.00;93821.81;2131663;27;20186;-69
2022/10/28 03:14:32;;;;;;;12.80;3.10;;;;;;;7.96;100.00;93816.50;2135332;27;20090;-71
2022/10/28 03:15:33;;;;;;;5.55;2.65;;;;;;;8.00;100.00;93819.16;2132753;27;20058;-69
2022/10/28 03:16:34;;;;;;;9.05;2.95;;;;;;;8.00;100.00;93824.47;2133307;27;20034;-71
2022/10/28 03:17:35;;;;;;;13.57;2.92;;;;;;;8.02;100.00;93822.94;2133402;27;20030;-69
2022/10/28 03:18:36;;;;;;;10.95;2.70;;;;;;;8.02;100.00;93822.94;2133155;27;20364;-69
2022/10/28 03:19:37;;;;;;;6.43;2.80;;;;;;;8.11;100.00;93827.13;2133313;27;20027;-69
2022/10/28 03:20:38;;;;;;;7.53;2.85;;;;;;;8.07;100.00;93825.22;2133308;27;20034;-69
2022/10/28 03:21:39;;;;;;;6.63;2.60;;;;;;;8.15;100.00;93827.88;2133017;27;20034;-69
2022/10/28 03:22:43;;;;;;;6.97;2.53;;;;;;;8.12;100.00;93820.66;2133240;27;20533;-71
2022/10/28 03:23:44;;;;;;;14.13;2.95;;;;;;;8.11;100.00;93827.88;2132866;27;20075;-69
2022/10/28 03:24:44;;;;;;;7.68;2.85;;;;;;;8.10;100.00;93826.38;2132137;27;20026;-69
2022/10/28 03:25:45;;;;;;;8.88;2.90;;;;;;;8.14;100.00;93834.34;2133325;27;20467;-69
2022/10/28 03:26:46;;;;;;;9.77;2.63;;;;;;;8.27;100.00;93822.16;2130593;27;20022;-70
2022/10/28 03:27:47;;;;;;;9.43;3.13;;;;;;;8.26;100.00;93821.41;2130875;27;20026;-70
2022/10/28 03:28:48;;;;;;;12.18;3.25;;;;;;;8.25;100.00;93827.09;2127548;27;20023;-70
2022/10/28 03:29:50;;;;;;;10.07;2.78;;;;;;;8.23;100.00;93824.84;2127128;27;20026;-72
2022/10/28 03:30:50;;;;;;;9.43;3.00;;;;;;;8.21;100.00;93824.47;2127568;27;20075;-70
2022/10/28 03:31:51;;;;;;;11.73;3.28;;;;;;;8.23;100.00;93822.16;2127358;27;20027;-70
2022/10/28 03:32:54;;;;;;;14.23;2.90;;;;;;;8.25;100.00;93830.56;2127550;27;20472;-70
2022/10/28 03:33:55;;;;;;;12.40;2.97;;;;;;;8.29;100.00;93833.19;2125631;27;20730;-69
2022/10/28 03:34:56;;;;;;;7.72;3.25;;;;;;;8.31;100.00;93822.94;2130649;27;20043;-69
2022/10/28 03:35:57;;;;;;;7.75;3.08;;;;;;;8.25;100.00;93827.88;2127503;27;20056;-69
2022/10/28 03:36:58;;;;;;;10.20;3.03;;;;;;;8.26;100.00;93831.31;2127331;27;20061;-69
2022/10/28 03:37:59;;;;;;;6.15;2.75;;;;;;;8.29;100.00;93825.19;2127480;27;20019;-71
2022/10/28 03:39:00;;;;;;;8.95;2.90;;;;;;;8.38;100.00;93825.59;2127459;27;20019;-69
2022/10/28 03:40:06;;;;;;;8.98;3.05;;;;;;;8.43;100.00;93827.88;2128915;27;20061;-68
2022/10/28 03:41:07;;;;;;;8.80;2.75;;;;;;;8.53;100.00;93829.75;2127544;27;20027;-69
2022/10/28 03:42:08;;;;;;;7.53;3.05;;;;;;;8.56;100.00;93823.66;2129545;27;20460;-69
2022/10/28 03:43:09;;;;;;;5.78;2.70;;;;;;;8.57;100.00;93824.41;2127307;27;20033;-69
2022/10/28 03:44:10;;;;;;;10.00;3.25;;;;;;;8.66;100.00;93826.69;2127628;27;20037;-71
2022/10/28 03:45:11;;;;;;;7.78;2.67;;;;;;;8.74;100.00;93828.19;2129336;27;20492;-69
2022/10/28 03:46:12;;;;;;;10.60;3.63;;;;;;;8.65;100.00;93817.94;2128811;27;20038;-70
2022/10/28 03:47:13;;;;;;;12.23;2.92;;;;;;;8.55;100.00;93822.13;2127283;27;20027;-71
2022/10/28 03:48:14;;;;;;;16.13;3.20;;;;;;;8.48;100.00;93824.81;2127425;27;20022;-70
2022/10/28 03:49:15;;;;;;;6.15;2.70;;;;;;;8.46;100.00;93816.44;2127401;27;20107;-69
2022/10/28 03:50:16;;;;;;;11.85;3.10;;;;;;;8.45;100.00;93814.94;2127028;27;20031;-70
2022/10/28 03:51:17;;;;;;;6.25;3.17;;;;;;;8.48;100.00;93821.41;2127275;27;20023;-69
2022/10/28 03:52:19;;;;;;;8.90;2.50;;;;;;;8.52;100.00;93817.59;2126747;27;20029;-69
2022/10/28 03:53:21;;;;;;;7.45;3.20;;;;;;;8.62;100.00;93815.28;2126584;27;20034;-71
2022/10/28 03:54:22;;;;;;;10.18;3.30;;;;;;;8.64;100.00;93815.63;2123245;27;20078;-69
2022/10/28 03:55:24;;;;;;;6.55;2.70;;;;;;;8.57;100.00;93814.53;2116765;27;20027;-70
2022/10/28 03:56:25;;;;;;;7.00;2.83;;;;;;;8.60;100.00;93806.88;2121350;27;20094;-70
2022/10/28 03:57:30;;;;;;;9.70;2.95;;;;;;;8.56;100.00;93814.91;2126528;27;20026;-70
2022/10/28 03:58:31;;;;;;;5.82;3.17;;;;;;;8.53;100.00;93816.44;2127354;27;20035;-69
2022/10/28 03:59:32;;;;;;;7.75;3.30;;;;;;;8.51;100.00;93809.97;2127231;27;20035;-71
2022/10/28 04:00:33;;;;;;;6.97;3.00;;;;;;;8.54;100.00;93814.53;2128002;27;20048;-70
2022/10/28 04:01:34;;;;;;;9.90;3.25;;;;;;;8.61;100.00;93808.44;2129752;27;20065;-70
2022/10/28 04:02:35;;;;;;;9.65;2.83;;;;;;;8.56;100.00;93813.00;2128575;27;20030;-68
2022/10/28 04:03:36;;;;;;;9.50;2.75;;;;;;;8.60;100.00;93812.22;2126260;27;20556;-70
2022/10/28 04:04:37;;;;;;;7.45;2.47;;;;;;;8.61;100.00;93803.09;2127222;27;20031;-69
2022/10/28 04:05:37;;;;;;;8.65;2.90;;;;;;;8.66;100.00;93814.13;2126584;27;20476;-69
2022/10/28 04:06:38;;;;;;;14.65;3.40;;;;;;;8.62;100.00;93799.28;2127303;27;20058;-70
2022/10/28 04:07:39;;;;;;;8.98;2.90;;;;;;;8.55;100.00;93800.06;2127237;27;20085;-69
2022/10/28 04:08:40;;;;;;;10.00;2.90;;;;;;;8.53;100.00;93808.44;2127248;27;20439;-68
2022/10/28 04:09:41;;;;;;;11.18;3.70;;;;;;;8.56;100.00;93802.34;2127320;27;20066;-69
2022/10/28 04:10:43;;;;;;;8.57;2.70;;;;;;;8.62;100.00;93805.38;2127315;27;20019;-70
2022/10/28 04:11:48;;;;;;;16.70;3.28;;;;;;;8.70;100.00;93798.13;2126905;27;20022;-69
2022/10/28 04:12:49;;;;;;;9.43;3.03;;;;;;;8.68;100.00;93801.16;2126373;27;20030;-69
2022/10/28 04:13:49;;;;;;;12.40;3.03;;;;;;;8.67;100.00;93804.22;2126081;27;20127;-68
2022/10/28 04:14:52;;;;;;;8.55;2.97;;;;;;;8.63;100.00;93795.47;2124137;27;20034;-70
2022/10/28 04:15:53;;;;;;;9.00;3.08;;;;;;;8.59;100.00;93795.47;2122075;27;20039;-69
2022/10/28 04:16:54;;;;;;;13.15;3.17;;;;;;;8.61;100.00;93797.78;2125134;27;20022;-71
2022/10/28 04:17:55;;;;;;;7.03;3.40;;;;;;;8.59;100.00;93790.13;2124126;27;20026;-70
2022/10/28 04:18:56;;;;;;;12.00;3.00;;;;;;;8.63;100.00;93790.88;2114822;27;20027;-69
2022/10/28 04:19:57;;;;;;;9.98;2.58;;;;;;;8.62;100.00;93794.72;2113002;27;20027;-68
2022/10/28 04:20:58;;;;;;;12.00;3.05;;;;;;;8.60;100.00;93790.91;2123167;27;20019;-69
2022/10/28 04:21:59;;;;;;;8.25;3.38;;;;;;;8.55;100.00;93787.47;2122497;27;20027;-70
2022/10/28 04:23:00;;;;;;;11.02;2.78;;;;;;;8.58;100.00;93789.38;2123427;27;20042;-69
2022/10/28 04:24:02;;;;;;;10.65;2.92;;;;;;;8.61;100.00;93793.19;2122820;27;20031;-68
2022/10/28 04:25:03;;;;;;;5.80;2.97;;;;;;;8.61;100.00;93792.44;2123462;27;20039;-69
2022/10/28 04:26:04;;;;;;;8.27;2.90;;;;;;;8.61;100.00;93792.44;2123548;27;20480;-69
2022/10/28 04:27:05;;;;;;;7.35;3.05;;;;;;;8.64;100.00;93792.41;2124634;27;20032;-69
2022/10/28 04:28:06;;;;;;;7.20;2.80;;;;;;;8.63;100.00;93790.88;2127044;27;20108;-68
2022/10/28 04:29:07;;;;;;;8.85;3.15;;;;;;;8.61;100.00;93793.19;2126673;27;20436;-70
2022/10/28 04:30:09;;;;;;;7.53;2.83;;;;;;;8.62;100.00;93792.03;2126905;27;20468;-70
2022/10/28 04:31:11;;;;;;;7.97;2.65;;;;;;;8.62;100.00;93789.38;2125646;27;20555;-69
2022/10/28 04:32:12;;;;;;;13.57;3.08;;;;;;;8.60;100.00;93785.56;2122341;27;20023;-69
2022/10/28 04:33:14;;;;;;;5.60;2.90;;;;;;;8.60;100.00;93791.66;2122379;27;20084;-70
2022/10/28 04:34:16;;;;;;;12.40;3.05;;;;;;;8.55;100.00;93792.81;2123887;27;20484;-69
2022/10/28 04:35:17;;;;;;;9.65;3.15;;;;;;;8.60;100.00;93786.31;2123951;27;20094;-71
2022/10/28 04:36:18;;;;;;;10.15;3.00;;;;;;;8.63;100.00;93784.81;2123492;27;20496;-68
2022/10/28 04:37:25;;;;;;;8.32;2.90;;;;;;;8.67;100.00;93786.31;2122240;27;20416;-69
2022/10/28 04:38:26;;;;;;;7.60;2.75;;;;;;;8.69;100.00;93791.25;2120374;27;20026;-70
2022/10/28 04:39:27;;;;;;;9.30;2.97;;;;;;;8.66;100.00;93789.38;2123225;27;20027;-70
2022/10/28 04:40:28;;;;;;;12.65;3.00;;;;;;;8.65;100.00;93787.84;2124430;27;20098;-71
2022/10/28 04:41:29;;;;;;;9.10;3.10;;;;;;;8.69;100.00;93785.91;2124424;27;20561;-70
2022/10/28 04:42:29;;;;;;;14.38;3.17;;;;;;;8.66;100.00;93790.13;2124234;27;20061;-69
2022/10/28 04:43:30;;;;;;;7.40;2.85;;;;;;;8.66;100.00;93787.47;2123413;27;20058;-68
2022/10/28 04:44:32;;;;;;;9.13;3.03;;;;;;;8.64;100.00;93781.00;2124034;27;20034;-70
2022/10/28 04:45:34;;;;;;;10.98;3.08;;;;;;;8.69;100.00;93780.59;2112651;27;20028;-68
2022/10/28 04:46:36;;;;;;;11.07;2.50;;;;;;;8.70;100.00;93782.13;2116189;27;20207;-68
2022/10/28 04:47:37;;;;;;;7.05;2.67;;;;;;;8.81;100.00;93783.59;2122216;27;20026;-69
2022/10/28 04:48:39;;;;;;;6.38;2.53;;;;;;;8.78;100.00;93775.59;2121848;27;20031;-69
2022/10/28 04:49:40;;;;;;;7.68;3.25;;;;;;;8.66;100.00;93786.72;2126859;27;20034;-70
2022/10/28 04:50:41;;;;;;;7.72;2.40;;;;;;;8.62;100.00;93783.28;2125765;27;20416;-69
2022/10/28 04:51:43;;;;;;;6.00;2.70;;;;;;;8.57;100.00;93776.47;2119745;27;20087;-69
2022/10/28 04:52:44;;;;;;;9.55;3.22;;;;;;;8.54;100.00;93780.66;2126836;27;20465;-73
2022/10/28 04:53:44;;;;;;;10.30;2.55;;;;;;;8.53;100.00;93778.38;2123440;27;20026;-68
2022/10/28 04:54:45;;;;;;;10.98;3.03;;;;;;;8.47;100.00;93778.03;2124125;27;20038;-69
2022/10/28 04:55:46;;;;;;;7.53;2.88;;;;;;;8.49;100.00;93778.38;2124173;27;20023;-68
2022/10/28 04:56:47;;;;;;;14.07;3.00;;;;;;;8.48;100.00;93784.84;2115506;27;20110;-68
2022/10/28 04:57:56;;;;;;;12.90;2.85;;;;;;;8.44;100.00;93780.69;2117286;27;20027;-69
2022/10/28 04:58:58;;;;;;;6.80;2.78;;;;;;;8.40;100.00;93788.69;2113926;27;20104;-69
2022/10/28 04:59:59;;;;;;;4.88;2.88;;;;;;;8.41;100.00;93787.53;2123951;27;20084;-69
2022/10/28 05:01:07;;;;;;;13.20;3.05;;;;;;;8.40;100.00;93785.25;2124890;27;20649;-68
2022/10/28 05:02:08;;;;;;;8.77;2.83;;;;;;;8.37;100.00;93794.00;2121902;27;20027;-71
2022/10/28 05:03:09;;;;;;;7.75;2.70;;;;;;;8.41;100.00;93800.09;2115051;27;20742;-69
2022/10/28 05:04:11;;;;;;;11.35;2.70;;;;;;;8.39;100.00;93795.16;2115784;27;20023;-69
2022/10/28 05:05:13;;;;;;;14.23;2.83;;;;;;;8.38;100.00;93798.94;2124357;27;20087;-68
2022/10/28 05:06:14;;;;;;;11.52;3.25;;;;;;;8.46;100.00;93799.69;2125640;27;20104;-69
2022/10/28 05:07:15;;;;;;;10.65;3.17;;;;;;;8.41;100.00;93792.84;2119560;27;20135;-70